This is the latest recevied weather packets stored in our database for station/object EB2EMZ-14. If no packets are shown the sender has not sent any weather packets the latest 1 day(s).
| Time | Temp. | Humidity | Pressure | Rain* | Wind** | Luminosity | Snow |
|---|---|---|---|---|---|---|---|
| 1778082610 | 16.11° C | 62% | 1012.2 hPa | 0 mm | - | 0 W/m² | - |
| 1778082310 | 16.11° C | 62% | 1012.3 hPa | 0 mm | - | 0 W/m² | - |
| 1778082012 | 16.11° C | 63% | 1012.3 hPa | 0 mm | - | 0 W/m² | - |
| 1778081410 | 16.11° C | 62% | 1012.2 hPa | 0 mm | - | 0 W/m² | - |
| 1778081110 | 16.11° C | 62% | 1012.3 hPa | 0 mm | - | 0 W/m² | - |
| 1778080213 | 16.11° C | 62% | 1012.3 hPa | 0 mm | - | 0 W/m² | - |
| 1778079911 | 16.11° C | 62% | 1012.3 hPa | 0 mm | - | 0 W/m² | - |
| 1778079311 | 16.11° C | 63% | 1012.4 hPa | 0 mm | - | 0 W/m² | - |
| 1778078410 | 15° C | 65% | 1012.6 hPa | 0 mm | - | 0 W/m² | - |
| 1778077511 | 14.44° C | 64% | 1012.8 hPa | 0 mm | - | 0 W/m² | - |
| 1778075110 | 16.67° C | 62% | 1012.8 hPa | 0 mm | - | 0 W/m² | - |
| 1778074510 | 16.67° C | 61% | 1012.8 hPa | 0 mm | - | 0 W/m² | - |
| 1778073913 | 16.67° C | 60% | 1012.8 hPa | 0 mm | - | 0 W/m² | - |
| 1778073311 | 17.22° C | 59% | 1012.7 hPa | 0 mm | - | 0 W/m² | - |
| 1778072410 | 16.67° C | 60% | 1012.8 hPa | 0 mm | - | 0 W/m² | - |
| 1778071211 | 16.11° C | 61% | 1012.7 hPa | 0 mm | - | 0 W/m² | - |
| 1778069710 | 15° C | 64% | 1012.7 hPa | 0 mm | - | 0 W/m² | - |
| 1778069111 | 15° C | 63% | 1012.8 hPa | 0 mm | - | 0 W/m² | - |
| 1778068510 | 15° C | 60% | 1012.7 hPa | 0 mm | - | 0 W/m² | - |
| 1778067310 | 18.89° C | 55% | 1012.8 hPa | 0 mm | - | 0 W/m² | - |
| 1778067010 | 19.44° C | 54% | 1012.6 hPa | 0 mm | - | 0 W/m² | - |
| 1778066710 | 19.44° C | 54% | 1012.5 hPa | 0 mm | - | 0 W/m² | - |
| 1778063710 | 17.78° C | 58% | 1012.6 hPa | 0 mm | - | 0 W/m² | - |
| 1778063110 | 17.22° C | 60% | 1012.7 hPa | 0 mm | - | 0 W/m² | - |
| 1778062810 | 16.67° C | 58% | 1012.6 hPa | 0 mm | - | 0 W/m² | - |
* Rain latest hour (hover to see other rain measurements)
** Current wind speed in m/s (hover to see current wind gust speed)